createdAt,value
2018-11-21T00:00:26.877Z,13.77
2018-11-21T00:05:33.081Z,14.37
2018-11-21T00:10:34.706Z,15.17
2018-11-21T00:15:38.541Z,15.53
2018-11-21T00:20:42.251Z,15.03
2018-11-21T00:25:46.092Z,13.67
2018-11-21T00:30:49.802Z,14.60
2018-11-21T00:35:53.574Z,16.07
2018-11-21T00:40:57.510Z,15.23
2018-11-21T00:46:01.314Z,14.87
2018-11-21T00:51:05.181Z,14.30
2018-11-21T00:56:09.092Z,14.57
2018-11-21T01:01:12.958Z,15.50
2018-11-21T01:06:16.797Z,14.23
2018-11-21T01:11:20.605Z,16.00
2018-11-21T01:16:24.315Z,15.70
2018-11-21T01:21:28.035Z,16.53
2018-11-21T01:26:31.723Z,15.20
2018-11-21T01:31:35.569Z,14.70
2018-11-21T01:36:39.246Z,14.50
2018-11-21T01:41:43.859Z,15.10
2018-11-21T01:46:48.559Z,15.33
2018-11-21T01:51:50.145Z,16.00
2018-11-21T01:56:53.931Z,15.60
2018-11-21T02:01:59.618Z,15.57
2018-11-21T02:07:01.553Z,15.33
2018-11-21T02:12:05.279Z,16.17
2018-11-21T02:17:10.976Z,14.73
2018-11-21T02:22:12.637Z,15.07
2018-11-21T02:27:16.312Z,16.13
2018-11-21T02:32:20.002Z,15.10
2018-11-21T02:37:23.755Z,15.20
2018-11-21T02:42:29.323Z,15.17
2018-11-21T02:47:31.026Z,14.63
2018-11-21T02:52:34.799Z,15.17
2018-11-21T02:57:39.982Z,16.03
2018-11-21T03:02:42.201Z,15.83
2018-11-21T03:07:59.310Z,15.17
2018-11-21T03:13:02.989Z,16.13
2018-11-21T03:18:06.828Z,15.77
2018-11-21T03:23:10.591Z,15.87
2018-11-21T03:28:14.266Z,14.77
2018-11-21T03:33:18.077Z,15.37
2018-11-21T03:38:21.856Z,15.70
2018-11-21T03:43:27.054Z,15.50
2018-11-21T03:48:29.370Z,16.48
2018-11-21T03:53:32.986Z,15.27
2018-11-21T03:58:38.663Z,16.53
2018-11-21T04:03:40.514Z,16.03
2018-11-21T04:08:44.297Z,16.60
2018-11-21T04:13:47.919Z,17.03
2018-11-21T04:18:56.014Z,17.27
2018-11-21T04:24:01.034Z,16.20
2018-11-21T04:29:03.255Z,16.50
2018-11-21T04:34:07.015Z,18.17
2018-11-21T04:39:11.758Z,16.73
2018-11-21T04:44:15.404Z,16.83
2018-11-21T04:49:19.088Z,16.73
2018-11-21T04:54:22.673Z,17.20
2018-11-21T04:59:26.544Z,16.77
2018-11-21T05:04:30.524Z,17.60
2018-11-21T05:09:34.388Z,16.57
2018-11-21T05:14:39.409Z,17.77
2018-11-21T05:19:41.914Z,17.47
2018-11-21T05:24:45.727Z,18.73
2018-11-21T05:29:49.646Z,18.47
2018-11-21T05:34:54.847Z,16.80
2018-11-21T05:39:57.312Z,16.70
2018-11-21T05:45:01.218Z,16.70
2018-11-21T05:50:07.426Z,16.67
2018-11-21T05:55:10.101Z,17.63
2018-11-21T06:00:14.690Z,17.15
2018-11-21T06:05:18.422Z,18.07
2018-11-21T06:10:24.192Z,16.80
2018-11-21T06:15:26.059Z,17.70
2018-11-21T06:20:29.764Z,17.63
2018-11-21T06:25:33.659Z,18.47
2018-11-21T06:30:40.297Z,18.30
2018-11-21T06:35:45.331Z,18.27
2018-11-21T06:40:47.993Z,17.20
2018-11-21T06:45:54.064Z,16.67
2018-11-21T06:50:57.785Z,17.93
2018-11-21T06:56:00.286Z,18.40
2018-11-21T07:01:05.442Z,19.33
2018-11-21T07:06:09.900Z,17.50
2018-11-21T07:11:12.812Z,18.37
2018-11-21T07:16:17.035Z,17.93
2018-11-21T07:21:23.264Z,19.13
2018-11-21T07:26:26.314Z,19.63
2018-11-21T07:31:30.980Z,18.60
2018-11-21T07:36:35.125Z,20.43
2018-11-21T07:41:38.517Z,19.33
2018-11-21T07:46:42.269Z,18.20
2018-11-21T07:51:46.494Z,19.20
2018-11-21T07:57:42.346Z,20.53
2018-11-21T08:02:44.630Z,20.13
2018-11-21T08:07:56.525Z,21.03
2018-11-21T08:13:19.022Z,19.00
2018-11-21T08:18:56.756Z,19.03
2018-11-21T08:24:11.044Z,19.57
2018-11-21T08:29:14.660Z,19.20
2018-11-21T08:34:18.227Z,18.83
2018-11-21T08:39:21.860Z,21.77
2018-11-21T08:44:25.526Z,19.90
2018-11-21T08:49:30.223Z,19.73
2018-11-21T08:54:32.809Z,21.33
2018-11-21T08:59:36.238Z,20.97
2018-11-21T09:04:40.007Z,20.10
2018-11-21T09:09:43.705Z,21.23
2018-11-21T09:14:47.289Z,19.97
2018-11-21T09:19:51.417Z,20.23
2018-11-21T09:24:54.975Z,21.03
2018-11-21T09:29:58.530Z,19.60
2018-11-21T09:35:12.601Z,19.53
2018-11-21T09:40:17.847Z,19.30
2018-11-21T09:45:22.553Z,19.63
2018-11-21T09:50:28.247Z,19.80
2018-11-21T09:55:31.988Z,19.10
2018-11-21T10:01:12.482Z,19.33
2018-11-21T10:06:24.408Z,18.73
2018-11-21T10:11:32.112Z,18.13
2018-11-21T10:16:36.004Z,19.03
2018-11-21T10:21:40.113Z,18.20
2018-11-21T10:26:44.014Z,19.00
2018-11-21T10:31:49.114Z,18.83
2018-11-21T10:36:51.592Z,18.97
2018-11-21T10:41:57.433Z,19.07
2018-11-21T10:47:03.208Z,20.07
2018-11-21T10:52:06.793Z,18.60
2018-11-21T10:57:12.774Z,19.97
2018-11-21T11:02:25.532Z,19.50
2018-11-21T11:19:27.372Z,19.90
2018-11-21T11:24:53.682Z,19.63
2018-11-21T11:30:19.413Z,20.43
2018-11-21T11:35:45.598Z,20.27
2018-11-21T11:41:12.354Z,19.10
2018-11-21T11:46:32.875Z,18.83
2018-11-21T11:51:52.172Z,19.23
2018-11-21T11:57:13.598Z,18.07
2018-11-21T12:02:38.849Z,21.00
2018-11-21T12:08:01.679Z,19.73
2018-11-21T12:13:41.190Z,18.20
2018-11-21T12:19:14.047Z,18.07
2018-11-21T12:24:35.464Z,19.40
2018-11-21T12:30:03.315Z,19.10
2018-11-21T12:35:37.788Z,19.07
2018-11-21T12:41:10.464Z,19.55
2018-11-21T12:46:47.629Z,19.73
2018-11-21T12:52:22.379Z,20.03
2018-11-21T12:57:43.969Z,19.10
2018-11-21T13:03:01.200Z,18.40
2018-11-21T13:08:27.945Z,18.60
2018-11-21T13:13:53.422Z,16.73
2018-11-21T13:19:23.110Z,18.20
2018-11-21T13:24:44.773Z,17.07
2018-11-21T13:29:56.005Z,17.73
2018-11-21T13:35:07.006Z,18.67
2018-11-21T13:40:30.734Z,17.20
2018-11-21T13:45:52.198Z,18.53
2018-11-21T13:51:15.364Z,18.63
2018-11-21T13:56:17.874Z,19.07
2018-11-21T14:01:23.269Z,17.37
2018-11-21T14:06:29.684Z,18.03
2018-11-21T14:11:31.691Z,18.97
2018-11-21T14:16:37.761Z,18.63
2018-11-21T14:21:42.814Z,19.60
2018-11-21T14:26:55.397Z,18.00
2018-11-21T14:31:55.287Z,19.77
2018-11-21T14:37:03.837Z,18.73
2018-11-21T14:42:08.130Z,18.07
2018-11-21T14:47:08.820Z,19.63
2018-11-21T14:52:14.091Z,18.50
2018-11-21T14:57:15.550Z,17.27
2018-11-21T15:02:17.845Z,20.27
2018-11-21T15:07:23.501Z,16.83
2018-11-21T15:12:25.213Z,18.33
2018-11-21T15:17:31.077Z,18.17
2018-11-21T15:22:44.519Z,18.20
2018-11-21T15:27:48.164Z,17.67
2018-11-21T15:32:53.088Z,16.53
2018-11-21T15:37:57.516Z,18.97
2018-11-21T15:42:59.107Z,18.50
2018-11-21T15:48:03.232Z,16.80
2018-11-21T15:53:07.059Z,17.90
2018-11-21T15:58:10.643Z,17.10
2018-11-21T16:03:14.401Z,16.50
2018-11-21T16:08:22.112Z,17.43
2018-11-21T16:13:24.572Z,17.97
2018-11-21T16:18:28.691Z,18.30
2018-11-21T16:23:32.478Z,17.63
2018-11-21T16:28:36.288Z,17.63
2018-11-21T16:33:39.847Z,15.23
2018-11-21T16:38:43.410Z,17.07
2018-11-21T16:43:48.064Z,16.93
2018-11-21T16:48:51.776Z,15.80
2018-11-21T16:53:55.476Z,17.07
2018-11-21T16:59:02.910Z,17.90
2018-11-21T17:04:12.873Z,16.47
2018-11-21T17:09:17.525Z,16.07
2018-11-21T17:14:21.066Z,15.80
2018-11-21T17:19:25.215Z,15.67
2018-11-21T17:24:29.261Z,15.33
2018-11-21T17:29:34.960Z,16.70
2018-11-21T17:34:40.762Z,14.30
2018-11-21T17:39:46.847Z,15.33
2018-11-21T17:50:15.482Z,14.87
2018-11-21T17:55:21.125Z,15.78
2018-11-21T18:00:26.204Z,14.27
2018-11-21T18:05:31.791Z,14.00
2018-11-21T18:10:36.922Z,13.83
2018-11-21T18:15:40.757Z,13.80
2018-11-21T18:20:44.397Z,14.63
2018-11-21T18:25:48.249Z,14.20
2018-11-21T18:30:51.998Z,13.20
2018-11-21T18:42:23.537Z,13.30
2018-11-21T18:47:25.972Z,13.07
2018-11-21T18:52:29.646Z,12.13
2018-11-21T18:58:15.347Z,11.53
2018-11-21T19:03:19.303Z,13.10
2018-11-21T19:08:23.997Z,11.50
2018-11-21T19:13:28.398Z,12.83
2018-11-21T19:18:32.208Z,12.87
2018-11-21T19:23:35.877Z,14.23
2018-11-21T19:28:39.550Z,12.83
2018-11-21T19:33:43.472Z,13.23
2018-11-21T19:38:47.144Z,12.43
2018-11-21T19:43:50.886Z,13.00
2018-11-21T19:48:54.482Z,13.60
2018-11-21T19:53:58.357Z,13.83
2018-11-21T19:59:01.972Z,14.23
2018-11-21T20:04:05.722Z,14.47
2018-11-21T20:09:12.163Z,15.93
2018-11-21T20:14:16.688Z,15.13
2018-11-21T20:19:24.397Z,15.17
2018-11-21T20:24:31.026Z,16.83
2018-11-21T20:29:34.736Z,15.87
2018-11-21T20:34:39.280Z,15.77
2018-11-21T20:39:46.826Z,16.73
2018-11-21T20:44:46.348Z,17.27
2018-11-21T20:49:50.106Z,16.43
2018-11-21T20:54:59.065Z,17.67
2018-11-21T21:00:00.429Z,18.40
2018-11-21T21:05:04.376Z,18.30
2018-11-21T21:10:09.307Z,18.00
2018-11-21T21:15:12.965Z,19.80
2018-11-21T21:20:18.428Z,18.50
2018-11-21T21:25:23.758Z,18.27
2018-11-21T21:30:31.261Z,18.13
2018-11-21T21:35:33.448Z,18.57
2018-11-21T21:40:37.125Z,18.53
2018-11-21T21:45:40.993Z,19.03
2018-11-21T21:50:44.621Z,19.90
2018-11-21T21:55:48.182Z,19.50
2018-11-21T22:00:51.812Z,20.60
2018-11-21T22:05:55.391Z,19.33
2018-11-21T22:10:59.097Z,19.33
2018-11-21T22:16:02.725Z,19.23
2018-11-21T22:21:06.611Z,19.43
2018-11-21T22:26:10.181Z,20.40
2018-11-21T22:31:13.852Z,19.67
2018-11-21T22:36:17.625Z,20.27
2018-11-21T22:41:22.378Z,19.07
2018-11-21T22:46:24.996Z,18.43
2018-11-21T22:51:29.636Z,19.30
2018-11-21T22:56:32.188Z,19.97
2018-11-21T23:01:40.801Z,18.63
2018-11-21T23:06:45.390Z,18.63
2018-11-21T23:12:03.768Z,18.60
2018-11-21T23:30:16.974Z,19.07
2018-11-21T23:36:28.005Z,19.30
2018-11-21T23:42:07.058Z,18.37
2018-11-21T23:47:51.754Z,18.03
2018-11-21T23:53:23.800Z,18.00
2018-11-21T23:58:53.993Z,17.07
